Time;durP1;ratioP1;P1;durP2;ratioP2;P2;SDS_P1;SDS_P2;PMS_P1;PMS_P2;Temp;Humidity;BMP_temperature;BMP_pressure;BME280_temperature;BME280_humidity;BME280_pressure;Samples;Min_cycle;Max_cycle;Signal;HPM_P1;HPM_P2
2021/11/06 00:00:07;;;;;;;10.52;5.30;;;;;;;13.57;100.00;99736.81;4998644;28;20153;-65
2021/11/06 00:02:56;;;;;;;9.20;5.43;;;;;;;13.69;100.00;99723.09;5004229;28;20080;-63
2021/11/06 00:05:41;;;;;;;9.93;5.03;;;;;;;13.62;100.00;99738.38;4995964;28;20049;-62
2021/11/06 00:08:25;;;;;;;;;;;;;;;13.65;100.00;99724.97;5012361;28;20470;-62
2021/11/06 00:11:10;;;;;;;7.43;5.20;;;;;;;13.52;100.00;99734.28;4986253;28;19925;-63
2021/11/06 00:13:55;;;;;;;7.47;4.95;;;;;;;13.54;100.00;99734.25;5001068;28;20088;-62
2021/11/06 00:16:39;;;;;;;7.55;5.35;;;;;;;13.51;100.00;99729.00;5008177;28;20139;-63
2021/11/06 00:19:25;;;;;;;9.25;5.43;;;;;;;13.61;100.00;99725.13;4995783;28;20096;-62
2021/11/06 00:22:09;;;;;;;9.27;6.45;;;;;;;13.66;100.00;99729.38;5000509;28;20057;-63
2021/11/06 00:24:54;;;;;;;9.52;6.18;;;;;;;13.61;100.00;99726.00;4990205;28;20064;-64
2021/11/06 00:27:39;;;;;;;9.35;5.75;;;;;;;13.60;100.00;99737.56;4990962;28;20054;-62
2021/11/06 00:30:23;;;;;;;11.45;5.93;;;;;;;13.39;100.00;99740.94;5003366;28;20049;-62
2021/11/06 00:33:08;;;;;;;8.93;6.22;;;;;;;13.40;100.00;99723.16;5011793;28;20562;-64
2021/11/06 00:35:53;;;;;;;;;;;;;;;13.38;100.00;99746.31;4987158;28;20057;-62
2021/11/06 00:38:37;;;;;;;7.72;5.40;;;;;;;13.40;100.00;99737.34;5007693;28;20012;-63
2021/11/06 00:41:22;;;;;;;9.25;5.65;;;;;;;13.52;100.00;99731.63;4990304;28;20053;-64
2021/11/06 00:44:06;;;;;;;8.88;5.07;;;;;;;13.55;100.00;99735.97;4991698;28;20072;-64
2021/11/06 00:46:50;;;;;;;10.02;6.00;;;;;;;13.55;100.00;99746.63;4978407;28;20414;-66
2021/11/06 00:49:35;;;;;;;13.25;6.07;;;;;;;13.57;100.00;99729.66;4999300;28;20100;-64
2021/11/06 00:52:19;;;;;;;9.73;5.55;;;;;;;13.51;100.00;99734.34;5006314;28;20060;-63
2021/11/06 00:55:05;;;;;;;7.63;5.78;;;;;;;13.34;100.00;99726.88;5006030;28;20900;-62
2021/11/06 00:57:49;;;;;;;9.05;5.95;;;;;;;13.45;100.00;99724.75;4973278;28;20080;-64
2021/11/06 01:00:34;;;;;;;7.50;5.78;;;;;;;13.47;100.00;99728.25;5005895;28;20052;-64
2021/11/06 01:03:18;;;;;;;9.60;6.15;;;;;;;13.45;100.00;99713.22;4977589;28;20651;-65
2021/11/06 01:06:03;;;;;;;11.23;6.70;;;;;;;13.29;100.00;99710.19;5007796;28;20076;-64
2021/11/06 01:08:47;;;;;;;;;;;;;;;13.23;100.00;99729.03;4985706;28;20067;-63
2021/11/06 01:11:32;;;;;;;11.30;6.38;;;;;;;13.21;100.00;99729.97;4998843;28;19924;-64
2021/11/06 01:14:17;;;;;;;14.18;6.47;;;;;;;13.05;100.00;99728.69;4961301;28;20082;-63
2021/11/06 01:17:02;;;;;;;;;;;;;;;13.11;100.00;99729.41;4987041;28;20108;-62
2021/11/06 01:19:47;;;;;;;10.95;6.30;;;;;;;13.13;100.00;99716.03;4986594;28;19924;-62
2021/11/06 01:22:31;;;;;;;9.45;6.30;;;;;;;13.10;100.00;99727.63;4983196;28;20116;-64
2021/11/06 01:25:16;;;;;;;9.27;5.90;;;;;;;13.09;100.00;99714.38;4980977;28;20545;-63
2021/11/06 01:28:00;;;;;;;11.30;7.10;;;;;;;13.12;100.00;99723.16;4990659;28;20471;-63
2021/11/06 01:30:45;;;;;;;10.90;6.90;;;;;;;13.09;100.00;99717.91;5009982;28;20052;-66
2021/11/06 01:33:29;;;;;;;11.52;7.43;;;;;;;13.07;100.00;99714.44;5004951;28;20254;-61
2021/11/06 01:36:15;;;;;;;11.18;7.00;;;;;;;12.99;100.00;99729.78;5008014;28;20056;-65
2021/11/06 01:38:59;;;;;;;9.90;6.80;;;;;;;12.93;100.00;99721.06;4994561;28;20056;-63
2021/11/06 01:41:44;;;;;;;12.88;6.85;;;;;;;13.00;100.00;99718.22;4984723;28;20049;-64
2021/11/06 01:44:30;;;;;;;10.50;7.13;;;;;;;12.98;100.00;99709.38;4991213;28;20148;-63
2021/11/06 01:47:15;;;;;;;12.10;6.65;;;;;;;13.02;100.00;99712.84;4990382;28;20084;-62
2021/11/06 01:49:59;;;;;;;13.13;7.18;;;;;;;13.08;100.00;99712.63;4981010;28;20069;-61
2021/11/06 01:52:44;;;;;;;11.90;6.60;;;;;;;12.92;100.00;99728.19;4979178;28;20542;-64
2021/11/06 01:55:34;;;;;;;11.45;6.63;;;;;;;13.02;100.00;99705.72;4971223;28;20053;-62
2021/11/06 01:58:20;;;;;;;11.95;7.28;;;;;;;13.00;100.00;99698.69;4984367;28;20052;-63
2021/11/06 02:01:04;;;;;;;9.63;6.60;;;;;;;12.93;100.00;99705.09;4999432;28;20061;-65
2021/11/06 02:03:49;;;;;;;14.15;6.88;;;;;;;12.96;100.00;99710.31;4989907;28;20064;-63
2021/11/06 02:06:34;;;;;;;12.93;7.55;;;;;;;12.93;100.00;99702.41;4974213;28;20080;-64
2021/11/06 02:09:18;;;;;;;10.70;7.30;;;;;;;12.96;100.00;99705.88;5006296;28;20710;-62
2021/11/06 02:12:03;;;;;;;11.00;7.03;;;;;;;13.03;100.00;99706.59;4981733;28;20291;-63
2021/11/06 02:14:48;;;;;;;14.88;7.85;;;;;;;13.14;100.00;99721.31;4988931;28;20417;-62
2021/11/06 02:17:32;;;;;;;12.48;7.47;;;;;;;13.08;100.00;99716.19;5005460;28;20525;-62
2021/11/06 02:20:19;;;;;;;10.95;7.90;;;;;;;13.12;100.00;99717.84;4997684;28;20049;-64
2021/11/06 02:23:04;;;;;;;10.13;6.93;;;;;;;13.15;100.00;99714.19;4978394;28;20453;-63
2021/11/06 02:25:49;;;;;;;13.88;7.38;;;;;;;13.09;100.00;99715.25;4988508;28;20053;-63
2021/11/06 02:28:34;;;;;;;13.55;7.75;;;;;;;13.03;100.00;99715.47;5006731;28;20127;-62
2021/11/06 02:31:20;;;;;;;12.07;7.32;;;;;;;12.96;100.00;99715.66;4978595;28;21082;-61
2021/11/06 02:34:04;;;;;;;13.63;7.45;;;;;;;12.82;100.00;99708.06;4966082;28;20064;-62
2021/11/06 02:36:49;;;;;;;14.18;8.48;;;;;;;12.78;100.00;99708.22;4995895;28;20172;-62
2021/11/06 02:39:33;;;;;;;10.02;6.70;;;;;;;12.71;100.00;99701.34;4979085;28;20525;-64
2021/11/06 02:42:17;;;;;;;11.30;7.53;;;;;;;12.77;100.00;99695.81;4987783;28;20056;-62
2021/11/06 02:45:09;;;;;;;13.32;7.35;;;;;;;12.81;100.00;99706.34;4974644;28;20052;-62
2021/11/06 02:47:54;;;;;;;12.68;6.72;;;;;;;12.70;100.00;99689.81;5005699;28;20542;-62
2021/11/06 02:50:38;;;;;;;12.35;7.97;;;;;;;12.60;100.00;99682.16;4991010;28;20776;-65
2021/11/06 02:53:23;;;;;;;10.45;7.20;;;;;;;12.56;100.00;99672.53;4977727;28;20332;-63
2021/11/06 02:56:07;;;;;;;11.30;7.93;;;;;;;12.57;100.00;99676.91;4993640;28;20072;-64
2021/11/06 02:58:53;;;;;;;11.07;7.47;;;;;;;12.54;100.00;99680.53;4969378;28;20057;-64
2021/11/06 03:01:38;;;;;;;17.70;7.95;;;;;;;12.49;100.00;99686.91;4976135;28;20097;-62
2021/11/06 03:04:23;;;;;;;12.18;7.05;;;;;;;12.51;100.00;99685.09;4985042;28;20109;-62
2021/11/06 03:07:08;;;;;;;14.07;8.43;;;;;;;12.43;100.00;99679.97;4987165;28;20104;-64
2021/11/06 03:09:52;;;;;;;11.35;6.85;;;;;;;12.35;100.00;99681.97;4986591;28;20049;-65
2021/11/06 03:12:37;;;;;;;12.50;7.75;;;;;;;12.38;100.00;99683.72;4990612;28;20053;-69
2021/11/06 03:15:23;;;;;;;13.77;7.43;;;;;;;12.42;100.00;99691.53;4998834;28;20068;-64
2021/11/06 03:18:08;;;;;;;11.80;7.10;;;;;;;12.44;100.00;99695.03;4989370;28;20699;-62
2021/11/06 03:20:53;;;;;;;12.40;6.60;;;;;;;12.44;100.00;99703.03;4971895;28;20061;-63
2021/11/06 03:23:37;;;;;;;13.98;7.47;;;;;;;12.54;100.00;99701.81;4971218;28;20053;-60
2021/11/06 03:26:22;;;;;;;11.95;7.25;;;;;;;12.52;100.00;99686.81;4984653;28;20087;-66
2021/11/06 03:29:07;;;;;;;11.75;7.40;;;;;;;12.39;100.00;99677.47;5000131;28;20053;-63
2021/11/06 03:31:51;;;;;;;12.60;7.20;;;;;;;12.33;100.00;99677.63;4977425;28;20081;-63
2021/11/06 03:34:37;;;;;;;13.57;7.25;;;;;;;12.27;100.00;99677.81;4988760;28;20096;-63
2021/11/06 03:37:21;;;;;;;11.88;6.90;;;;;;;12.23;100.00;99684.13;4998658;28;20130;-63
2021/11/06 03:40:06;;;;;;;11.43;6.70;;;;;;;12.22;100.00;99685.91;4994040;28;20057;-61
2021/11/06 03:42:51;;;;;;;14.55;7.38;;;;;;;12.09;100.00;99673.88;4965449;28;20181;-62
2021/11/06 03:45:36;;;;;;;12.73;7.60;;;;;;;11.99;100.00;99677.69;4980551;28;20077;-61
2021/11/06 03:48:21;;;;;;;11.15;6.80;;;;;;;11.80;100.00;99691.53;4975164;28;20469;-62
2021/11/06 03:51:06;;;;;;;13.90;8.38;;;;;;;11.73;100.00;99688.16;4989192;28;20058;-61
2021/11/06 03:53:51;;;;;;;10.77;6.68;;;;;;;11.72;100.00;99686.41;4974313;28;20060;-62
2021/11/06 03:56:36;;;;;;;;;;;;;;;11.76;100.00;99696.06;4966535;28;20057;-63
2021/11/06 03:59:20;;;;;;;9.80;6.38;;;;;;;11.74;100.00;99692.56;5004514;28;19944;-63
2021/11/06 04:02:05;;;;;;;11.45;5.53;;;;;;;11.60;100.00;99692.03;4990672;28;20061;-63
2021/11/06 04:04:49;;;;;;;9.93;5.20;;;;;;;11.57;100.00;99685.88;4991783;28;20139;-65
2021/11/06 04:07:34;;;;;;;9.63;5.13;;;;;;;11.41;100.00;99681.88;5003651;28;20142;-63
2021/11/06 04:10:18;;;;;;;6.75;4.03;;;;;;;11.24;100.00;99686.72;4989824;28;20061;-63
2021/11/06 04:13:03;;;;;;;7.28;4.03;;;;;;;11.16;100.00;99701.97;4992375;28;20525;-63
2021/11/06 04:15:48;;;;;;;5.97;3.58;;;;;;;11.03;100.00;99706.66;4990526;28;20175;-65
2021/11/06 04:18:33;;;;;;;7.00;3.67;;;;;;;10.90;100.00;99699.00;4980236;28;20049;-62
2021/11/06 04:21:18;;;;;;;7.03;3.80;;;;;;;10.94;100.00;99712.19;4996182;28;20100;-63
2021/11/06 04:24:03;;;;;;;6.15;3.60;;;;;;;11.07;100.00;99699.53;4993531;28;20417;-63
2021/11/06 04:26:47;;;;;;;6.55;3.80;;;;;;;10.85;100.00;99685.88;5007824;28;20053;-63
2021/11/06 04:29:32;;;;;;;5.60;3.03;;;;;;;10.86;100.00;99697.34;4997658;28;20557;-66
2021/11/06 04:32:17;;;;;;;7.07;2.83;;;;;;;10.77;100.00;99698.44;5009259;28;20045;-72
2021/11/06 04:35:01;;;;;;;4.50;2.88;;;;;;;10.59;100.00;99704.13;4991890;28;20056;-67
2021/11/06 04:37:47;;;;;;;3.40;2.33;;;;;;;10.50;100.00;99700.78;4994292;28;20057;-67
2021/11/06 04:40:32;;;;;;;3.60;2.45;;;;;;;10.41;100.00;99699.22;5003635;28;20100;-64
2021/11/06 04:43:16;;;;;;;5.45;3.10;;;;;;;10.35;100.00;99707.28;5002070;28;20077;-68
2021/11/06 04:46:00;;;;;;;4.13;2.60;;;;;;;10.43;100.00;99707.09;5008561;28;20138;-65
2021/11/06 04:48:45;;;;;;;4.35;2.55;;;;;;;10.37;100.00;99697.53;4987521;28;20180;-66
2021/11/06 04:51:30;;;;;;;;;;;;;;;10.36;100.00;99701.06;4993797;28;20493;-64
2021/11/06 04:54:15;;;;;;;2.65;2.28;;;;;;;10.22;100.00;99696.94;5008097;28;19967;-65
2021/11/06 04:57:00;;;;;;;2.80;2.15;;;;;;;10.22;100.00;99694.28;4988990;28;20061;-70
2021/11/06 04:59:44;;;;;;;3.80;2.28;;;;;;;10.23;100.00;99702.22;4982849;28;20147;-63
2021/11/06 05:02:29;;;;;;;2.85;1.92;;;;;;;10.19;100.00;99695.22;5003647;28;20053;-66
2021/11/06 05:05:13;;;;;;;4.37;2.43;;;;;;;10.13;100.00;99707.72;4972365;28;20072;-62
2021/11/06 05:07:58;;;;;;;3.55;2.40;;;;;;;10.16;100.00;99702.38;4986447;28;20301;-62
2021/11/06 05:10:42;;;;;;;4.82;2.38;;;;;;;10.04;100.00;99697.28;4993155;28;20152;-64
2021/11/06 05:13:27;;;;;;;3.55;2.40;;;;;;;10.05;100.00;99691.97;4986644;28;20057;-63
2021/11/06 05:16:11;;;;;;;4.00;2.15;;;;;;;10.01;100.00;99690.25;5002170;28;20044;-62
2021/11/06 05:18:56;;;;;;;3.83;2.40;;;;;;;10.13;100.00;99695.34;4995417;28;20053;-65
2021/11/06 05:21:41;;;;;;;4.80;2.67;;;;;;;10.12;100.00;99687.44;4999025;28;20141;-66
2021/11/06 05:24:26;;;;;;;3.47;2.47;;;;;;;10.31;100.00;99688.81;4985754;28;20096;-64
2021/11/06 05:27:10;;;;;;;3.67;2.20;;;;;;;10.30;100.00;99687.94;4995688;28;20068;-66
2021/11/06 05:29:55;;;;;;;6.43;2.80;;;;;;;10.23;100.00;99686.31;5001067;28;20053;-66
2021/11/06 05:32:40;;;;;;;;;;;;;;;10.13;100.00;99697.13;5022844;28;20068;-66
2021/11/06 05:35:25;;;;;;;3.85;2.30;;;;;;;10.17;100.00;99702.31;5018646;28;19975;-66
2021/11/06 05:38:10;;;;;;;5.68;2.72;;;;;;;10.29;100.00;99698.59;5018519;28;20096;-67
2021/11/06 05:40:54;;;;;;;3.67;2.40;;;;;;;10.39;100.00;99690.41;5017753;28;20095;-66
2021/11/06 05:43:39;;;;;;;3.60;2.60;;;;;;;10.53;100.00;99692.78;4964077;28;20067;-68
2021/11/06 05:46:24;;;;;;;4.53;2.78;;;;;;;10.44;100.00;99688.53;4988969;28;20095;-64
2021/11/06 05:49:09;;;;;;;5.47;3.10;;;;;;;10.31;100.00;99678.19;4999108;28;20139;-67
2021/11/06 05:51:53;;;;;;;5.32;3.17;;;;;;;10.31;100.00;99679.09;4992291;28;20057;-64
2021/11/06 05:54:39;;;;;;;5.28;3.00;;;;;;;10.45;100.00;99676.16;4996747;28;20545;-65
2021/11/06 05:57:23;;;;;;;7.47;3.20;;;;;;;10.45;100.00;99682.34;4986267;28;20064;-68
2021/11/06 06:00:15;;;;;;;5.00;2.88;;;;;;;10.37;100.00;99692.22;4987044;28;20525;-64
2021/11/06 06:03:00;;;;;;;5.28;2.67;;;;;;;10.41;100.00;99688.63;4980805;28;20061;-68
2021/11/06 06:05:45;;;;;;;5.97;3.00;;;;;;;10.42;100.00;99673.56;4985076;28;20120;-64
2021/11/06 06:08:30;;;;;;;6.18;2.83;;;;;;;10.47;100.00;99688.47;4989185;28;20053;-65
2021/11/06 06:11:15;;;;;;;4.43;2.47;;;;;;;10.26;100.00;99688.03;4992153;28;20061;-67
2021/11/06 06:14:00;;;;;;;3.55;2.60;;;;;;;10.19;100.00;99697.00;4994567;28;20068;-66
2021/11/06 06:16:45;;;;;;;4.18;2.55;;;;;;;10.20;100.00;99702.28;4989713;28;20068;-68
2021/11/06 06:19:29;;;;;;;7.97;2.70;;;;;;;10.10;100.00;99698.06;4989075;28;20048;-65
2021/11/06 06:22:14;;;;;;;4.60;2.70;;;;;;;10.15;100.00;99704.16;4973220;28;20072;-65
2021/11/06 06:24:59;;;;;;;5.43;2.45;;;;;;;10.11;100.00;99702.47;5005095;28;20415;-67
2021/11/06 06:27:44;;;;;;;7.05;2.47;;;;;;;10.03;100.00;99703.47;4990176;28;20409;-65
2021/11/06 06:30:29;;;;;;;;;;;;;;;9.98;100.00;99685.03;4990982;28;20048;-68
2021/11/06 06:33:14;;;;;;;3.35;2.35;;;;;;;9.97;100.00;99679.75;5006870;28;20293;-65
2021/11/06 06:36:00;;;;;;;4.43;2.80;;;;;;;9.89;100.00;99656.03;4973106;28;20069;-64
2021/11/06 06:38:45;;;;;;;2.85;2.25;;;;;;;9.98;100.00;99658.53;4992289;28;20557;-64
2021/11/06 06:41:29;;;;;;;3.20;2.55;;;;;;;9.92;100.00;99640.09;4981918;28;20712;-65
2021/11/06 06:44:14;;;;;;;3.97;2.72;;;;;;;9.94;100.00;99656.84;4971724;28;20077;-64
2021/11/06 06:46:58;;;;;;;;;;;;;;;9.93;100.00;99636.53;4997499;28;20045;-67
2021/11/06 06:49:46;;;;;;;3.42;2.38;;;;;;;9.85;100.00;99649.06;4990932;28;19943;-65
2021/11/06 06:52:31;;;;;;;3.42;2.55;;;;;;;9.85;100.00;99653.50;4970546;28;20056;-65
2021/11/06 06:55:15;;;;;;;3.08;2.30;;;;;;;9.88;100.00;99664.91;4984287;28;20650;-64
2021/11/06 06:58:00;;;;;;;2.90;2.33;;;;;;;9.88;100.00;99662.25;4984948;28;20142;-65
2021/11/06 07:00:45;;;;;;;4.05;2.42;;;;;;;9.89;100.00;99674.59;4984091;28;20056;-69
2021/11/06 07:03:29;;;;;;;3.63;2.40;;;;;;;9.94;100.00;99661.25;4996600;28;20076;-65
2021/11/06 07:06:14;;;;;;;3.50;2.25;;;;;;;9.82;100.00;99687.97;4984281;28;20410;-66
2021/11/06 07:09:00;;;;;;;;;;;;;;;9.81;100.00;99683.59;4969256;28;20137;-66
2021/11/06 07:11:45;;;;;;;3.78;2.30;;;;;;;9.73;100.00;99681.06;4991076;28;20320;-64
2021/11/06 07:14:29;;;;;;;;;;;;;;;9.75;100.00;99678.38;4994894;28;20144;-65
2021/11/06 07:17:14;;;;;;;4.47;2.40;;;;;;;9.77;100.00;99687.19;4992765;28;19943;-66
2021/11/06 07:19:58;;;;;;;5.35;2.33;;;;;;;9.70;100.00;99688.19;4992995;28;20104;-65
2021/11/06 07:22:43;;;;;;;4.40;2.58;;;;;;;9.68;100.00;99695.31;4992280;28;20137;-64
2021/11/06 07:25:28;;;;;;;;;;;;;;;9.66;100.00;99699.75;4980821;28;20069;-64
2021/11/06 07:28:13;;;;;;;3.85;2.50;;;;;;;9.60;100.00;99692.78;5007735;28;19987;-67
2021/11/06 07:30:59;;;;;;;3.47;2.40;;;;;;;9.77;100.00;99696.00;4978899;28;20053;-66
2021/11/06 07:33:47;;;;;;;3.13;2.25;;;;;;;9.82;100.00;99722.41;4959583;28;20422;-66
2021/11/06 07:36:31;;;;;;;4.78;2.60;;;;;;;9.78;100.00;99715.41;4985703;28;20129;-65
2021/11/06 07:39:17;;;;;;;5.80;2.60;;;;;;;9.80;100.00;99705.69;4963166;28;20077;-66
2021/11/06 07:42:02;;;;;;;3.83;2.80;;;;;;;9.99;100.00;99688.53;4973313;28;20052;-66
2021/11/06 07:44:47;;;;;;;5.50;2.80;;;;;;;10.16;100.00;99679.38;4999953;28;20056;-64
2021/11/06 07:47:32;;;;;;;6.32;3.67;;;;;;;10.28;100.00;99683.59;4987018;28;20096;-68
2021/11/06 07:50:18;;;;;;;6.00;3.03;;;;;;;10.33;100.00;99698.50;5001605;28;20097;-65
2021/11/06 07:53:03;;;;;;;4.18;2.70;;;;;;;10.30;100.00;99689.72;4994577;28;20136;-65
2021/11/06 07:55:48;;;;;;;3.92;2.47;;;;;;;10.43;100.00;99696.50;4993355;28;20104;-67
2021/11/06 07:58:33;;;;;;;;;;;;;;;10.41;100.00;99690.38;4987923;28;20521;-65
2021/11/06 08:01:20;;;;;;;3.53;2.58;;;;;;;10.19;100.00;99682.00;4991723;28;19924;-67
2021/11/06 08:04:04;;;;;;;3.05;2.08;;;;;;;10.27;100.00;99688.00;5015361;28;20136;-67
2021/11/06 08:06:49;;;;;;;4.53;3.00;;;;;;;10.11;100.00;99677.72;4983891;28;20070;-65
2021/11/06 08:09:34;;;;;;;5.35;3.40;;;;;;;10.05;100.00;99661.94;4982833;28;20085;-66
2021/11/06 08:12:19;;;;;;;5.68;3.03;;;;;;;10.15;100.00;99655.56;4980160;28;20049;-66
2021/11/06 08:15:06;;;;;;;4.65;3.10;;;;;;;10.21;100.00;99666.91;5002899;28;20081;-68
2021/11/06 08:17:53;;;;;;;8.88;3.53;;;;;;;10.33;100.00;99674.66;4979601;28;20049;-66
2021/11/06 08:20:37;;;;;;;3.63;2.38;;;;;;;10.36;100.00;99674.56;4975781;28;20076;-69
2021/11/06 08:23:23;;;;;;;3.63;2.40;;;;;;;10.33;100.00;99663.16;4972511;28;20095;-66
2021/11/06 08:26:08;;;;;;;5.10;2.47;;;;;;;10.19;100.00;99658.13;5016293;28;20076;-66
2021/11/06 08:28:52;;;;;;;4.28;2.38;;;;;;;10.16;100.00;99660.00;4994802;28;20081;-66
2021/11/06 08:31:37;;;;;;;5.18;2.63;;;;;;;10.25;100.00;99649.19;4984282;28;20061;-65
2021/11/06 08:34:21;;;;;;;3.55;2.17;;;;;;;10.32;100.00;99667.56;5020255;28;20077;-65
2021/11/06 08:37:06;;;;;;;2.13;1.90;;;;;;;10.34;100.00;99664.91;5020832;28;20048;-65
2021/11/06 08:39:50;;;;;;;5.77;2.30;;;;;;;10.27;100.00;99652.66;5022703;28;20191;-68
2021/11/06 08:42:36;;;;;;;3.45;2.47;;;;;;;10.15;100.00;99650.28;5024428;28;20288;-65
2021/11/06 08:45:22;;;;;;;5.28;2.58;;;;;;;10.06;100.00;99664.59;5017506;28;20071;-65
2021/11/06 08:48:06;;;;;;;3.03;2.40;;;;;;;9.95;100.00;99673.59;5018617;28;20056;-66
2021/11/06 08:50:51;;;;;;;10.48;2.72;;;;;;;10.04;100.00;99669.00;5021816;28;20143;-66
2021/11/06 08:53:36;;;;;;;5.13;2.72;;;;;;;10.00;100.00;99667.31;5010523;28;20057;-66
2021/11/06 08:56:24;;;;;;;5.43;2.63;;;;;;;10.06;100.00;99645.16;5017243;28;20104;-67
2021/11/06 08:59:20;;;;;;;7.07;2.45;;;;;;;10.06;100.00;99647.81;4992386;28;20057;-69
2021/11/06 09:02:06;;;;;;;5.15;2.85;;;;;;;9.93;100.00;99651.59;5004037;28;20084;-66
2021/11/06 09:04:51;;;;;;;3.53;2.83;;;;;;;10.06;100.00;99631.91;5017736;28;20172;-66
2021/11/06 09:07:36;;;;;;;;;;;;;;;10.10;100.00;99631.84;5008021;28;20107;-65
2021/11/06 09:10:22;;;;;;;3.80;2.65;;;;;;;10.02;100.00;99619.59;5002874;28;20293;-66
2021/11/06 09:13:06;;;;;;;4.95;3.08;;;;;;;10.08;100.00;99620.38;4974122;28;20579;-66
2021/11/06 09:15:52;;;;;;;5.88;3.03;;;;;;;10.23;100.00;99608.59;4991434;28;20052;-67
2021/11/06 09:18:38;;;;;;;5.00;2.65;;;;;;;10.21;100.00;99628.97;4994344;28;20510;-63
2021/11/06 09:21:26;;;;;;;7.10;2.45;;;;;;;10.19;100.00;99631.66;5004802;28;20057;-65
2021/11/06 09:24:11;;;;;;;8.07;2.75;;;;;;;10.33;100.00;99620.75;4986817;28;20073;-64
2021/11/06 09:26:56;;;;;;;6.82;3.45;;;;;;;10.11;100.00;99614.16;5007618;28;20091;-66
2021/11/06 09:29:41;;;;;;;5.18;3.00;;;;;;;10.09;100.00;99595.63;4999047;28;20056;-65
2021/11/06 09:32:25;;;;;;;7.05;3.15;;;;;;;10.08;100.00;99601.84;4988907;28;20753;-65
2021/11/06 09:35:12;;;;;;;5.55;3.00;;;;;;;10.08;100.00;99624.84;4970075;28;20315;-65
2021/11/06 09:37:58;;;;;;;8.18;3.10;;;;;;;10.04;100.00;99610.72;4999405;28;20088;-64
2021/11/06 09:40:45;;;;;;;5.25;2.47;;;;;;;9.99;100.00;99625.84;5015715;28;20044;-65
2021/11/06 09:43:30;;;;;;;4.03;2.55;;;;;;;9.96;100.00;99603.84;4992000;28;20139;-64
2021/11/06 09:46:16;;;;;;;4.25;2.30;;;;;;;10.40;100.00;99583.47;5014532;28;20061;-64
2021/11/06 09:49:01;;;;;;;3.97;2.50;;;;;;;10.72;100.00;99588.91;4985374;28;20080;-62
2021/11/06 09:51:46;;;;;;;3.05;2.10;;;;;;;10.86;100.00;99584.16;5006488;28;20546;-62
2021/11/06 09:54:30;;;;;;;7.25;2.47;;;;;;;11.78;100.00;99573.78;5007535;28;20581;-63
2021/11/06 09:57:15;;;;;;;3.88;1.90;;;;;;;12.19;100.00;99573.50;4993584;28;20421;-68
2021/11/06 10:00:02;;;;;;;3.85;1.85;;;;;;;12.15;100.00;99572.69;5008683;28;20064;-69
2021/11/06 10:02:57;;;;;;;4.35;2.03;;;;;;;12.11;100.00;99565.72;5016740;28;20057;-63
2021/11/06 10:05:56;;;;;;;4.40;2.17;;;;;;;12.57;100.00;99558.09;5010651;28;20372;-61
2021/11/06 10:08:44;;;;;;;3.17;2.25;;;;;;;13.09;100.00;99560.84;4984048;28;20109;-63
2021/11/06 10:11:31;;;;;;;4.55;2.20;;;;;;;13.82;100.00;99568.00;5021281;28;20122;-59
2021/11/06 10:14:24;;;;;;;2.75;1.88;;;;;;;13.24;100.00;99578.09;5005802;28;20433;-63
2021/11/06 10:17:09;;;;;;;7.07;2.33;;;;;;;12.39;100.00;99550.69;5015664;28;20095;-67
2021/11/06 10:19:54;;;;;;;3.88;1.70;;;;;;;12.00;100.00;99581.13;4967927;28;20066;-64
2021/11/06 10:22:39;;;;;;;2.15;1.90;;;;;;;12.07;100.00;99557.91;4984696;28;20522;-66
2021/11/06 10:25:24;;;;;;;;;;;;;;;13.80;100.00;99577.00;5017489;28;20061;-63
2021/11/06 10:28:12;;;;;;;5.45;2.25;;;;;;;14.60;100.00;99574.84;5001195;28;20533;-67
2021/11/06 10:31:03;;;;;;;3.65;1.85;;;;;;;14.93;100.00;99577.97;4985075;28;20095;-66
2021/11/06 10:33:50;;;;;;;4.28;1.83;;;;;;;14.32;100.00;99581.31;4993785;28;20092;-66
2021/11/06 10:36:36;;;;;;;3.83;1.70;;;;;;;13.75;100.00;99578.97;4993545;28;20235;-68
2021/11/06 10:39:21;;;;;;;3.25;1.70;;;;;;;13.43;100.00;99582.78;5002343;28;20207;-64
2021/11/06 10:42:10;;;;;;;5.85;1.90;;;;;;;14.39;100.00;99578.34;5000062;28;20056;-64
2021/11/06 10:45:14;;;;;;;3.15;1.70;;;;;;;14.86;100.00;99574.69;5007675;28;20150;-68
2021/11/06 10:48:21;;;;;;;3.35;1.67;;;;;;;14.26;100.00;99570.88;4997054;28;20576;-76
2021/11/06 10:51:12;;;;;;;2.95;1.50;;;;;;;13.77;100.00;99574.47;4998987;28;20467;-62
2021/11/06 10:54:00;;;;;;;6.03;1.80;;;;;;;13.91;100.00;99580.16;4985505;28;20103;-65
2021/11/06 10:56:53;;;;;;;3.65;1.52;;;;;;;13.45;100.00;99556.94;4989235;28;20421;-66
2021/11/06 10:59:38;;;;;;;4.10;1.52;;;;;;;13.07;100.00;99561.84;5000812;28;20056;-67
2021/11/06 11:02:23;;;;;;;4.82;1.60;;;;;;;12.64;100.00;99549.03;4992363;28;20065;-65
2021/11/06 11:05:30;;;;;;;4.72;1.60;;;;;;;12.59;100.00;99568.72;4972396;28;20057;-64
2021/11/06 11:08:16;;;;;;;2.92;1.48;;;;;;;12.45;100.00;99549.63;5003198;28;20174;-65
2021/11/06 11:11:06;;;;;;;;;;;;;;;12.24;100.00;99548.53;5002904;28;20060;-62
2021/11/06 11:14:02;;;;;;;3.50;1.60;;;;;;;12.00;100.00;99553.69;5009588;28;20389;-68
2021/11/06 11:16:51;;;;;;;5.45;1.90;;;;;;;12.01;100.00;99558.06;4988262;28;20055;-65
2021/11/06 11:19:40;;;;;;;3.92;1.70;;;;;;;11.92;100.00;99558.34;4999749;28;20400;-65
2021/11/06 11:22:30;;;;;;;3.78;1.70;;;;;;;11.86;100.00;99550.53;4987254;28;22140;-66
2021/11/06 11:25:17;;;;;;;2.08;1.30;;;;;;;11.71;100.00;99546.53;4994700;28;20052;-64
2021/11/06 11:28:04;;;;;;;3.17;1.20;;;;;;;11.43;100.00;99534.91;5010894;28;20076;-63
2021/11/06 11:30:49;;;;;;;2.72;1.30;;;;;;;11.45;100.00;99561.41;4992180;28;20575;-63
2021/11/06 11:33:45;;;;;;;4.57;1.27;;;;;;;11.26;100.00;99547.75;5008709;28;20056;-64
2021/11/06 11:36:32;;;;;;;1.85;1.20;;;;;;;11.18;100.00;99555.06;5003257;28;20061;-64
2021/11/06 11:39:20;;;;;;;4.82;1.40;;;;;;;11.23;100.00;99539.03;5004514;28;20571;-65
2021/11/06 11:42:05;;;;;;;1.77;1.10;;;;;;;11.19;100.00;99518.78;4998952;28;20056;-66
2021/11/06 11:45:28;;;;;;;1.95;1.17;;;;;;;11.15;100.00;99544.50;5023290;28;20142;-67
2021/11/06 11:48:22;;;;;;;3.88;1.00;;;;;;;11.31;100.00;99548.50;5008175;28;20099;-64
2021/11/06 11:51:07;;;;;;;2.75;1.50;;;;;;;11.38;100.00;99549.19;4960872;28;20422;-64
2021/11/06 11:54:00;;;;;;;1.83;1.25;;;;;;;11.37;100.00;99537.75;4962396;28;20068;-65
2021/11/06 11:56:46;;;;;;;5.22;1.20;;;;;;;11.31;100.00;99551.16;5007152;28;20540;-65
2021/11/06 11:59:32;;;;;;;1.55;1.02;;;;;;;11.36;100.00;99543.94;4986240;28;20437;-62
2021/11/06 12:02:19;;;;;;;3.00;1.50;;;;;;;11.18;100.00;99554.16;4994067;28;20072;-62
2021/11/06 12:05:17;;;;;;;4.35;1.40;;;;;;;11.07;100.00;99562.41;5009512;28;20048;-65
2021/11/06 12:08:09;;;;;;;3.60;2.15;;;;;;;11.01;100.00;99561.69;4986290;28;20049;-64
2021/11/06 12:10:59;;;;;;;4.03;2.20;;;;;;;11.14;100.00;99553.38;4980672;28;20630;-62
2021/11/06 12:13:50;;;;;;;3.33;1.80;;;;;;;11.02;100.00;99550.16;4981851;28;20058;-66
2021/11/06 12:16:46;;;;;;;4.97;1.67;;;;;;;11.04;100.00;99554.50;4992096;28;20061;-64
2021/11/06 12:19:45;;;;;;;6.13;1.20;;;;;;;10.94;100.00;99557.44;5006259;28;20052;-63
2021/11/06 12:22:33;;;;;;;3.58;1.40;;;;;;;10.93;100.00;99563.66;4983500;28;20477;-62
2021/11/06 12:25:19;;;;;;;4.10;1.30;;;;;;;11.05;100.00;99573.97;4987857;28;20052;-62
2021/11/06 12:28:23;;;;;;;3.67;1.40;;;;;;;10.86;100.00;99555.00;4983644;28;20489;-64
2021/11/06 12:31:30;;;;;;;3.25;1.50;;;;;;;10.99;100.00;99559.06;4991915;28;20116;-65
2021/11/06 12:34:41;;;;;;;3.38;1.15;;;;;;;11.04;100.00;99580.19;4985187;28;20053;-63
2021/11/06 12:37:35;;;;;;;1.90;1.15;;;;;;;11.03;100.00;99581.13;4975902;28;20064;-63
2021/11/06 12:40:31;;;;;;;2.45;1.10;;;;;;;11.09;100.00;99580.94;4987447;28;20091;-64
2021/11/06 12:43:21;;;;;;;1.70;1.10;;;;;;;10.96;100.00;99583.03;5004064;28;20200;-63
2021/11/06 12:46:23;;;;;;;4.88;1.90;;;;;;;11.27;100.00;99588.47;4999833;28;20092;-63
2021/11/06 12:49:09;;;;;;;3.10;1.60;;;;;;;11.18;100.00;99596.63;4981443;28;20064;-61
2021/11/06 12:51:54;;;;;;;2.92;1.60;;;;;;;11.14;100.00;99564.00;5006070;28;20053;-63
2021/11/06 12:54:39;;;;;;;;;;;;;;;11.19;100.00;99604.56;4992099;28;20199;-64
2021/11/06 12:57:32;;;;;;;3.25;1.20;;;;;;;11.20;100.00;99593.03;5006278;28;19923;-63